sensor_id;sensor_type;location;lat;lon;timestamp;P1;durP1;ratioP1;P2;durP2;ratioP2
32297;SDS011;18782;48.984;8.548;2023-07-13T00:00:55;2.38;;;0.80;;
32297;SDS011;18782;48.984;8.548;2023-07-13T00:03:23;4.72;;;0.73;;
32297;SDS011;18782;48.984;8.548;2023-07-13T00:05:57;2.80;;;0.80;;
32297;SDS011;18782;48.984;8.548;2023-07-13T00:08:25;2.97;;;0.80;;
32297;SDS011;18782;48.984;8.548;2023-07-13T00:10:53;4.80;;;0.80;;
32297;SDS011;18782;48.984;8.548;2023-07-13T00:13:22;3.72;;;1.15;;
32297;SDS011;18782;48.984;8.548;2023-07-13T00:15:50;4.18;;;0.80;;
32297;SDS011;18782;48.984;8.548;2023-07-13T00:18:17;1.88;;;0.73;;
32297;SDS011;18782;48.984;8.548;2023-07-13T00:20:45;2.45;;;0.80;;
32297;SDS011;18782;48.984;8.548;2023-07-13T00:23:13;1.98;;;0.70;;
32297;SDS011;18782;48.984;8.548;2023-07-13T00:25:40;2.40;;;0.90;;
32297;SDS011;18782;48.984;8.548;2023-07-13T00:28:08;2.53;;;0.80;;
32297;SDS011;18782;48.984;8.548;2023-07-13T00:30:37;3.22;;;0.98;;
32297;SDS011;18782;48.984;8.548;2023-07-13T00:33:05;1.80;;;0.80;;
32297;SDS011;18782;48.984;8.548;2023-07-13T00:35:43;2.22;;;0.70;;
32297;SDS011;18782;48.984;8.548;2023-07-13T00:38:11;2.17;;;0.77;;
32297;SDS011;18782;48.984;8.548;2023-07-13T00:40:39;1.98;;;0.90;;
32297;SDS011;18782;48.984;8.548;2023-07-13T00:43:09;3.88;;;0.77;;
32297;SDS011;18782;48.984;8.548;2023-07-13T00:48:48;1.65;;;0.63;;
32297;SDS011;18782;48.984;8.548;2023-07-13T00:51:17;2.17;;;0.70;;
32297;SDS011;18782;48.984;8.548;2023-07-13T00:53:51;2.17;;;0.70;;
32297;SDS011;18782;48.984;8.548;2023-07-13T00:56:22;2.63;;;0.88;;
32297;SDS011;18782;48.984;8.548;2023-07-13T00:58:51;2.67;;;0.90;;
32297;SDS011;18782;48.984;8.548;2023-07-13T01:01:21;2.83;;;0.98;;
32297;SDS011;18782;48.984;8.548;2023-07-13T01:03:49;3.20;;;0.75;;
32297;SDS011;18782;48.984;8.548;2023-07-13T01:06:18;4.65;;;0.77;;
32297;SDS011;18782;48.984;8.548;2023-07-13T01:08:46;3.63;;;0.90;;
32297;SDS011;18782;48.984;8.548;2023-07-13T01:11:17;4.15;;;0.70;;
32297;SDS011;18782;48.984;8.548;2023-07-13T01:13:46;3.60;;;0.85;;
32297;SDS011;18782;48.984;8.548;2023-07-13T01:16:15;4.30;;;0.90;;
32297;SDS011;18782;48.984;8.548;2023-07-13T01:18:51;1.88;;;0.70;;
32297;SDS011;18782;48.984;8.548;2023-07-13T01:21:20;1.13;;;0.75;;
32297;SDS011;18782;48.984;8.548;2023-07-13T01:23:47;3.45;;;0.60;;
32297;SDS011;18782;48.984;8.548;2023-07-13T01:26:15;2.75;;;0.90;;
32297;SDS011;18782;48.984;8.548;2023-07-13T01:28:43;3.58;;;0.90;;
32297;SDS011;18782;48.984;8.548;2023-07-13T01:31:11;5.05;;;0.70;;
32297;SDS011;18782;48.984;8.548;2023-07-13T01:33:39;2.80;;;0.70;;
32297;SDS011;18782;48.984;8.548;2023-07-13T01:36:08;2.63;;;0.63;;
32297;SDS011;18782;48.984;8.548;2023-07-13T01:38:39;3.78;;;0.90;;
32297;SDS011;18782;48.984;8.548;2023-07-13T01:41:10;4.28;;;0.98;;
32297;SDS011;18782;48.984;8.548;2023-07-13T01:43:37;1.88;;;0.70;;
32297;SDS011;18782;48.984;8.548;2023-07-13T01:46:06;3.70;;;0.98;;
32297;SDS011;18782;48.984;8.548;2023-07-13T01:48:49;3.13;;;0.80;;
32297;SDS011;18782;48.984;8.548;2023-07-13T01:51:17;0.80;;;0.50;;
32297;SDS011;18782;48.984;8.548;2023-07-13T01:53:47;1.35;;;0.60;;
32297;SDS011;18782;48.984;8.548;2023-07-13T01:56:15;1.77;;;0.60;;
32297;SDS011;18782;48.984;8.548;2023-07-13T01:58:44;3.10;;;0.75;;
32297;SDS011;18782;48.984;8.548;2023-07-13T02:01:12;2.22;;;0.73;;
32297;SDS011;18782;48.984;8.548;2023-07-13T02:03:40;2.55;;;0.80;;
32297;SDS011;18782;48.984;8.548;2023-07-13T02:06:07;2.88;;;0.75;;
32297;SDS011;18782;48.984;8.548;2023-07-13T02:08:36;3.78;;;1.05;;
32297;SDS011;18782;48.984;8.548;2023-07-13T02:11:05;2.97;;;1.23;;
32297;SDS011;18782;48.984;8.548;2023-07-13T02:13:33;3.45;;;1.63;;
32297;SDS011;18782;48.984;8.548;2023-07-13T02:16:01;2.55;;;1.27;;
32297;SDS011;18782;48.984;8.548;2023-07-13T02:18:29;3.42;;;1.00;;
32297;SDS011;18782;48.984;8.548;2023-07-13T02:20:57;2.00;;;0.77;;
32297;SDS011;18782;48.984;8.548;2023-07-13T02:23:24;2.15;;;0.90;;
32297;SDS011;18782;48.984;8.548;2023-07-13T02:25:54;1.42;;;0.80;;
32297;SDS011;18782;48.984;8.548;2023-07-13T02:28:24;1.70;;;0.70;;
32297;SDS011;18782;48.984;8.548;2023-07-13T02:30:52;1.75;;;0.75;;
32297;SDS011;18782;48.984;8.548;2023-07-13T02:33:19;2.05;;;0.75;;
32297;SDS011;18782;48.984;8.548;2023-07-13T02:35:47;2.53;;;0.80;;
32297;SDS011;18782;48.984;8.548;2023-07-13T02:38:15;2.63;;;0.93;;
32297;SDS011;18782;48.984;8.548;2023-07-13T02:40:43;5.32;;;1.00;;
32297;SDS011;18782;48.984;8.548;2023-07-13T02:43:11;2.53;;;0.70;;
32297;SDS011;18782;48.984;8.548;2023-07-13T02:45:40;2.05;;;0.82;;
32297;SDS011;18782;48.984;8.548;2023-07-13T02:48:12;4.43;;;0.70;;
32297;SDS011;18782;48.984;8.548;2023-07-13T02:50:41;2.28;;;0.85;;
32297;SDS011;18782;48.984;8.548;2023-07-13T02:53:08;3.35;;;0.82;;
32297;SDS011;18782;48.984;8.548;2023-07-13T02:55:36;2.40;;;0.85;;
32297;SDS011;18782;48.984;8.548;2023-07-13T02:58:04;2.75;;;0.90;;
32297;SDS011;18782;48.984;8.548;2023-07-13T03:00:32;3.92;;;0.73;;
32297;SDS011;18782;48.984;8.548;2023-07-13T03:03:01;2.15;;;0.80;;
32297;SDS011;18782;48.984;8.548;2023-07-13T03:05:29;1.23;;;0.70;;
32297;SDS011;18782;48.984;8.548;2023-07-13T03:07:57;1.80;;;0.55;;
32297;SDS011;18782;48.984;8.548;2023-07-13T03:10:26;2.30;;;1.00;;
32297;SDS011;18782;48.984;8.548;2023-07-13T03:12:54;1.67;;;0.80;;
32297;SDS011;18782;48.984;8.548;2023-07-13T03:15:25;3.10;;;0.80;;
32297;SDS011;18782;48.984;8.548;2023-07-13T03:17:56;3.20;;;0.63;;
32297;SDS011;18782;48.984;8.548;2023-07-13T03:20:25;1.98;;;0.80;;
32297;SDS011;18782;48.984;8.548;2023-07-13T03:22:53;4.47;;;1.33;;
32297;SDS011;18782;48.984;8.548;2023-07-13T03:25:21;3.60;;;0.95;;
32297;SDS011;18782;48.984;8.548;2023-07-13T03:27:49;2.45;;;0.80;;
32297;SDS011;18782;48.984;8.548;2023-07-13T03:30:17;1.83;;;0.88;;
32297;SDS011;18782;48.984;8.548;2023-07-13T03:32:45;4.43;;;1.10;;
32297;SDS011;18782;48.984;8.548;2023-07-13T03:35:12;1.35;;;0.80;;
32297;SDS011;18782;48.984;8.548;2023-07-13T03:37:41;1.40;;;0.70;;
32297;SDS011;18782;48.984;8.548;2023-07-13T03:40:14;1.55;;;0.85;;
32297;SDS011;18782;48.984;8.548;2023-07-13T03:42:44;2.88;;;0.90;;
32297;SDS011;18782;48.984;8.548;2023-07-13T03:45:14;2.95;;;0.80;;
32297;SDS011;18782;48.984;8.548;2023-07-13T03:47:42;2.88;;;0.90;;
32297;SDS011;18782;48.984;8.548;2023-07-13T03:50:10;3.22;;;0.77;;
32297;SDS011;18782;48.984;8.548;2023-07-13T03:52:38;2.67;;;0.85;;
32297;SDS011;18782;48.984;8.548;2023-07-13T03:55:07;4.07;;;1.70;;
32297;SDS011;18782;48.984;8.548;2023-07-13T03:57:36;2.17;;;1.20;;
32297;SDS011;18782;48.984;8.548;2023-07-13T04:00:07;3.38;;;1.20;;
32297;SDS011;18782;48.984;8.548;2023-07-13T04:02:41;4.97;;;1.60;;
32297;SDS011;18782;48.984;8.548;2023-07-13T04:05:09;5.68;;;1.40;;
32297;SDS011;18782;48.984;8.548;2023-07-13T04:07:36;3.70;;;2.13;;
32297;SDS011;18782;48.984;8.548;2023-07-13T04:10:06;3.20;;;1.05;;
32297;SDS011;18782;48.984;8.548;2023-07-13T04:12:35;3.95;;;0.90;;
32297;SDS011;18782;48.984;8.548;2023-07-13T04:15:03;2.08;;;0.75;;
32297;SDS011;18782;48.984;8.548;2023-07-13T04:17:32;3.63;;;1.00;;
32297;SDS011;18782;48.984;8.548;2023-07-13T04:19:59;2.42;;;1.00;;
32297;SDS011;18782;48.984;8.548;2023-07-13T04:22:27;6.60;;;1.45;;
32297;SDS011;18782;48.984;8.548;2023-07-13T04:24:54;2.55;;;1.00;;
32297;SDS011;18782;48.984;8.548;2023-07-13T04:27:23;5.28;;;1.23;;
32297;SDS011;18782;48.984;8.548;2023-07-13T04:29:51;2.97;;;1.10;;
32297;SDS011;18782;48.984;8.548;2023-07-13T04:32:19;7.55;;;1.40;;
32297;SDS011;18782;48.984;8.548;2023-07-13T04:34:46;13.65;;;1.58;;
32297;SDS011;18782;48.984;8.548;2023-07-13T04:37:19;4.65;;;1.33;;
32297;SDS011;18782;48.984;8.548;2023-07-13T04:39:47;4.15;;;1.05;;
32297;SDS011;18782;48.984;8.548;2023-07-13T04:42:15;4.10;;;1.20;;
32297;SDS011;18782;48.984;8.548;2023-07-13T04:44:48;5.25;;;1.40;;
32297;SDS011;18782;48.984;8.548;2023-07-13T04:49:44;3.35;;;1.10;;
32297;SDS011;18782;48.984;8.548;2023-07-13T04:52:12;4.35;;;0.82;;
32297;SDS011;18782;48.984;8.548;2023-07-13T04:54:39;2.92;;;0.98;;
32297;SDS011;18782;48.984;8.548;2023-07-13T04:57:07;2.65;;;1.20;;
32297;SDS011;18782;48.984;8.548;2023-07-13T04:59:35;4.25;;;1.77;;
32297;SDS011;18782;48.984;8.548;2023-07-13T05:02:04;4.75;;;1.20;;
32297;SDS011;18782;48.984;8.548;2023-07-13T05:04:32;4.80;;;1.20;;
32297;SDS011;18782;48.984;8.548;2023-07-13T05:07:00;3.85;;;1.73;;
32297;SDS011;18782;48.984;8.548;2023-07-13T05:09:27;4.18;;;2.28;;
32297;SDS011;18782;48.984;8.548;2023-07-13T05:11:55;4.00;;;1.50;;
32297;SDS011;18782;48.984;8.548;2023-07-13T05:14:23;5.43;;;1.80;;
32297;SDS011;18782;48.984;8.548;2023-07-13T05:16:50;5.50;;;1.90;;
32297;SDS011;18782;48.984;8.548;2023-07-13T05:19:19;3.13;;;1.23;;
32297;SDS011;18782;48.984;8.548;2023-07-13T05:21:47;1.52;;;0.95;;
32297;SDS011;18782;48.984;8.548;2023-07-13T05:24:15;3.60;;;1.00;;
32297;SDS011;18782;48.984;8.548;2023-07-13T05:26:51;2.25;;;1.00;;
32297;SDS011;18782;48.984;8.548;2023-07-13T05:29:19;2.85;;;0.90;;
32297;SDS011;18782;48.984;8.548;2023-07-13T05:31:47;2.90;;;1.00;;
32297;SDS011;18782;48.984;8.548;2023-07-13T05:34:15;4.25;;;0.90;;
32297;SDS011;18782;48.984;8.548;2023-07-13T05:36:44;1.88;;;0.90;;
32297;SDS011;18782;48.984;8.548;2023-07-13T05:39:12;6.25;;;3.50;;
32297;SDS011;18782;48.984;8.548;2023-07-13T05:41:40;6.13;;;2.80;;
32297;SDS011;18782;48.984;8.548;2023-07-13T05:44:08;2.83;;;1.20;;
32297;SDS011;18782;48.984;8.548;2023-07-13T05:46:35;4.28;;;1.40;;
32297;SDS011;18782;48.984;8.548;2023-07-13T05:49:03;2.75;;;0.98;;
32297;SDS011;18782;48.984;8.548;2023-07-13T05:51:31;5.05;;;1.25;;
32297;SDS011;18782;48.984;8.548;2023-07-13T05:54:00;2.25;;;0.90;;
32297;SDS011;18782;48.984;8.548;2023-07-13T05:56:28;7.88;;;2.10;;
32297;SDS011;18782;48.984;8.548;2023-07-13T05:58:56;12.15;;;4.97;;
32297;SDS011;18782;48.984;8.548;2023-07-13T06:01:23;5.57;;;2.78;;
32297;SDS011;18782;48.984;8.548;2023-07-13T06:03:51;3.80;;;1.60;;
32297;SDS011;18782;48.984;8.548;2023-07-13T06:06:19;2.42;;;1.30;;
32297;SDS011;18782;48.984;8.548;2023-07-13T06:08:47;3.97;;;1.58;;
32297;SDS011;18782;48.984;8.548;2023-07-13T06:11:17;5.22;;;1.77;;
32297;SDS011;18782;48.984;8.548;2023-07-13T06:13:47;4.63;;;1.40;;
32297;SDS011;18782;48.984;8.548;2023-07-13T06:32:03;2.58;;;1.10;;
32297;SDS011;18782;48.984;8.548;2023-07-13T06:34:32;4.93;;;1.00;;
32297;SDS011;18782;48.984;8.548;2023-07-13T06:36:59;2.20;;;0.90;;
32297;SDS011;18782;48.984;8.548;2023-07-13T06:39:27;2.58;;;0.95;;
32297;SDS011;18782;48.984;8.548;2023-07-13T06:41:55;4.55;;;1.00;;
32297;SDS011;18782;48.984;8.548;2023-07-13T06:44:22;2.63;;;0.90;;
32297;SDS011;18782;48.984;8.548;2023-07-13T06:46:50;3.30;;;1.20;;
32297;SDS011;18782;48.984;8.548;2023-07-13T06:49:19;3.53;;;1.40;;
32297;SDS011;18782;48.984;8.548;2023-07-13T06:51:47;3.58;;;1.00;;
32297;SDS011;18782;48.984;8.548;2023-07-13T06:54:15;2.58;;;1.20;;
32297;SDS011;18782;48.984;8.548;2023-07-13T06:56:43;3.25;;;1.10;;
32297;SDS011;18782;48.984;8.548;2023-07-13T06:59:10;2.72;;;0.90;;
32297;SDS011;18782;48.984;8.548;2023-07-13T07:01:38;4.63;;;1.00;;
32297;SDS011;18782;48.984;8.548;2023-07-13T07:04:07;3.05;;;0.95;;
32297;SDS011;18782;48.984;8.548;2023-07-13T07:06:36;3.35;;;0.90;;
32297;SDS011;18782;48.984;8.548;2023-07-13T07:09:04;3.92;;;1.10;;
32297;SDS011;18782;48.984;8.548;2023-07-13T07:11:31;2.20;;;0.90;;
32297;SDS011;18782;48.984;8.548;2023-07-13T07:13:59;2.65;;;0.75;;
32297;SDS011;18782;48.984;8.548;2023-07-13T07:16:27;3.13;;;0.80;;
32297;SDS011;18782;48.984;8.548;2023-07-13T07:18:55;4.15;;;0.80;;
32297;SDS011;18782;48.984;8.548;2023-07-13T07:21:22;3.35;;;0.70;;
32297;SDS011;18782;48.984;8.548;2023-07-13T07:23:51;3.30;;;0.80;;
32297;SDS011;18782;48.984;8.548;2023-07-13T07:26:19;3.45;;;0.98;;
32297;SDS011;18782;48.984;8.548;2023-07-13T07:28:51;3.08;;;0.85;;
32297;SDS011;18782;48.984;8.548;2023-07-13T07:31:38;4.80;;;0.70;;
32297;SDS011;18782;48.984;8.548;2023-07-13T07:34:09;4.88;;;0.90;;
32297;SDS011;18782;48.984;8.548;2023-07-13T07:36:37;1.83;;;0.95;;
32297;SDS011;18782;48.984;8.548;2023-07-13T07:39:08;2.75;;;0.80;;
32297;SDS011;18782;48.984;8.548;2023-07-13T07:41:36;5.70;;;1.17;;
32297;SDS011;18782;48.984;8.548;2023-07-13T07:44:07;2.40;;;0.90;;
32297;SDS011;18782;48.984;8.548;2023-07-13T07:46:36;1.88;;;0.85;;
32297;SDS011;18782;48.984;8.548;2023-07-13T07:49:03;2.33;;;0.70;;
32297;SDS011;18782;48.984;8.548;2023-07-13T07:51:31;2.78;;;0.75;;
32297;SDS011;18782;48.984;8.548;2023-07-13T07:53:59;1.50;;;0.80;;
32297;SDS011;18782;48.984;8.548;2023-07-13T07:56:28;3.08;;;1.00;;
32297;SDS011;18782;48.984;8.548;2023-07-13T07:58:59;3.95;;;0.73;;
32297;SDS011;18782;48.984;8.548;2023-07-13T08:01:29;1.83;;;0.70;;
32297;SDS011;18782;48.984;8.548;2023-07-13T08:04:00;3.17;;;0.85;;
32297;SDS011;18782;48.984;8.548;2023-07-13T08:06:31;2.70;;;0.70;;
32297;SDS011;18782;48.984;8.548;2023-07-13T08:09:02;2.72;;;0.70;;
32297;SDS011;18782;48.984;8.548;2023-07-13T08:11:32;3.35;;;0.63;;
32297;SDS011;18782;48.984;8.548;2023-07-13T08:14:02;2.70;;;0.68;;
32297;SDS011;18782;48.984;8.548;2023-07-13T08:16:30;3.35;;;0.93;;
32297;SDS011;18782;48.984;8.548;2023-07-13T08:18:59;2.58;;;0.70;;
32297;SDS011;18782;48.984;8.548;2023-07-13T08:21:27;3.58;;;0.88;;
32297;SDS011;18782;48.984;8.548;2023-07-13T08:23:55;3.08;;;0.75;;
32297;SDS011;18782;48.984;8.548;2023-07-13T08:26:23;3.45;;;0.50;;
32297;SDS011;18782;48.984;8.548;2023-07-13T08:28:52;1.40;;;0.50;;
32297;SDS011;18782;48.984;8.548;2023-07-13T08:31:19;1.85;;;0.60;;
32297;SDS011;18782;48.984;8.548;2023-07-13T08:33:47;1.52;;;0.60;;
32297;SDS011;18782;48.984;8.548;2023-07-13T08:36:15;2.28;;;0.50;;
32297;SDS011;18782;48.984;8.548;2023-07-13T08:38:42;2.72;;;0.60;;
32297;SDS011;18782;48.984;8.548;2023-07-13T08:41:11;2.53;;;0.60;;
32297;SDS011;18782;48.984;8.548;2023-07-13T08:43:40;1.30;;;0.60;;
32297;SDS011;18782;48.984;8.548;2023-07-13T08:46:13;1.42;;;0.60;;
32297;SDS011;18782;48.984;8.548;2023-07-13T08:48:44;3.72;;;0.80;;
32297;SDS011;18782;48.984;8.548;2023-07-13T08:51:21;2.67;;;0.70;;
32297;SDS011;18782;48.984;8.548;2023-07-13T08:53:57;4.22;;;0.80;;
32297;SDS011;18782;48.984;8.548;2023-07-13T08:56:28;2.63;;;0.90;;
32297;SDS011;18782;48.984;8.548;2023-07-13T08:58:58;3.45;;;1.10;;
32297;SDS011;18782;48.984;8.548;2023-07-13T09:01:30;4.50;;;1.05;;
32297;SDS011;18782;48.984;8.548;2023-07-13T09:04:02;2.20;;;0.70;;
32297;SDS011;18782;48.984;8.548;2023-07-13T09:06:36;2.88;;;1.08;;
32297;SDS011;18782;48.984;8.548;2023-07-13T09:09:20;3.72;;;0.70;;
32297;SDS011;18782;48.984;8.548;2023-07-13T09:12:01;3.33;;;0.90;;
32297;SDS011;18782;48.984;8.548;2023-07-13T09:14:41;2.60;;;1.17;;
32297;SDS011;18782;48.984;8.548;2023-07-13T09:17:14;1.83;;;0.50;;
32297;SDS011;18782;48.984;8.548;2023-07-13T09:19:46;2.45;;;0.90;;
32297;SDS011;18782;48.984;8.548;2023-07-13T09:22:20;4.50;;;0.63;;
32297;SDS011;18782;48.984;8.548;2023-07-13T09:24:52;1.42;;;0.60;;
32297;SDS011;18782;48.984;8.548;2023-07-13T09:27:27;2.10;;;0.70;;
32297;SDS011;18782;48.984;8.548;2023-07-13T09:30:02;3.92;;;1.20;;
32297;SDS011;18782;48.984;8.548;2023-07-13T09:32:45;4.07;;;0.75;;
32297;SDS011;18782;48.984;8.548;2023-07-13T09:35:21;2.20;;;0.70;;
32297;SDS011;18782;48.984;8.548;2023-07-13T09:37:57;2.08;;;0.50;;
32297;SDS011;18782;48.984;8.548;2023-07-13T09:40:30;2.33;;;0.45;;
32297;SDS011;18782;48.984;8.548;2023-07-13T09:43:04;1.85;;;0.65;;
32297;SDS011;18782;48.984;8.548;2023-07-13T09:45:37;2.97;;;0.60;;
32297;SDS011;18782;48.984;8.548;2023-07-13T09:48:10;2.47;;;0.77;;
32297;SDS011;18782;48.984;8.548;2023-07-13T09:50:40;4.45;;;0.57;;
32297;SDS011;18782;48.984;8.548;2023-07-13T09:53:13;2.25;;;0.75;;
32297;SDS011;18782;48.984;8.548;2023-07-13T09:55:43;2.03;;;0.50;;
32297;SDS011;18782;48.984;8.548;2023-07-13T09:58:12;3.83;;;0.75;;
32297;SDS011;18782;48.984;8.548;2023-07-13T10:00:42;2.00;;;0.43;;
32297;SDS011;18782;48.984;8.548;2023-07-13T10:03:16;1.65;;;0.57;;
32297;SDS011;18782;48.984;8.548;2023-07-13T10:05:48;2.25;;;0.80;;
32297;SDS011;18782;48.984;8.548;2023-07-13T10:08:18;1.23;;;0.57;;
32297;SDS011;18782;48.984;8.548;2023-07-13T10:10:52;3.00;;;0.70;;
32297;SDS011;18782;48.984;8.548;2023-07-13T10:13:32;1.98;;;0.50;;
32297;SDS011;18782;48.984;8.548;2023-07-13T10:16:04;3.90;;;0.60;;
32297;SDS011;18782;48.984;8.548;2023-07-13T10:18:37;2.10;;;0.60;;
32297;SDS011;18782;48.984;8.548;2023-07-13T10:21:11;2.20;;;0.70;;
32297;SDS011;18782;48.984;8.548;2023-07-13T10:23:45;5.47;;;0.73;;
32297;SDS011;18782;48.984;8.548;2023-07-13T10:26:19;3.20;;;0.80;;
32297;SDS011;18782;48.984;8.548;2023-07-13T10:28:52;3.50;;;0.60;;
32297;SDS011;18782;48.984;8.548;2023-07-13T10:31:23;3.83;;;0.98;;
32297;SDS011;18782;48.984;8.548;2023-07-13T10:33:52;2.78;;;0.55;;
32297;SDS011;18782;48.984;8.548;2023-07-13T10:36:25;3.35;;;0.50;;
32297;SDS011;18782;48.984;8.548;2023-07-13T10:38:58;1.85;;;0.52;;
32297;SDS011;18782;48.984;8.548;2023-07-13T10:41:29;1.55;;;0.52;;
32297;SDS011;18782;48.984;8.548;2023-07-13T10:43:59;4.13;;;0.82;;
32297;SDS011;18782;48.984;8.548;2023-07-13T10:46:29;2.70;;;0.60;;
32297;SDS011;18782;48.984;8.548;2023-07-13T10:48:59;4.00;;;1.02;;
32297;SDS011;18782;48.984;8.548;2023-07-13T10:51:30;3.33;;;0.80;;
32297;SDS011;18782;48.984;8.548;2023-07-13T10:54:14;3.42;;;0.70;;
32297;SDS011;18782;48.984;8.548;2023-07-13T10:56:47;1.42;;;0.40;;
32297;SDS011;18782;48.984;8.548;2023-07-13T10:59:18;3.10;;;0.65;;
32297;SDS011;18782;48.984;8.548;2023-07-13T11:01:56;4.50;;;0.75;;
32297;SDS011;18782;48.984;8.548;2023-07-13T11:04:29;1.80;;;0.68;;
32297;SDS011;18782;48.984;8.548;2023-07-13T11:07:10;3.55;;;1.05;;
32297;SDS011;18782;48.984;8.548;2023-07-13T11:09:44;2.60;;;0.85;;
32297;SDS011;18782;48.984;8.548;2023-07-13T11:12:28;3.83;;;0.98;;
32297;SDS011;18782;48.984;8.548;2023-07-13T11:15:11;2.38;;;0.50;;
32297;SDS011;18782;48.984;8.548;2023-07-13T11:17:49;2.78;;;0.90;;
32297;SDS011;18782;48.984;8.548;2023-07-13T11:20:33;2.13;;;0.80;;
32297;SDS011;18782;48.984;8.548;2023-07-13T11:25:57;3.05;;;0.90;;
32297;SDS011;18782;48.984;8.548;2023-07-13T11:28:27;1.80;;;0.50;;
32297;SDS011;18782;48.984;8.548;2023-07-13T11:31:00;2.63;;;0.68;;
32297;SDS011;18782;48.984;8.548;2023-07-13T11:33:45;2.30;;;0.60;;
32297;SDS011;18782;48.984;8.548;2023-07-13T11:36:20;3.20;;;1.02;;
32297;SDS011;18782;48.984;8.548;2023-07-13T11:38:55;3.58;;;0.70;;
32297;SDS011;18782;48.984;8.548;2023-07-13T11:41:29;3.40;;;0.60;;
32297;SDS011;18782;48.984;8.548;2023-07-13T11:44:04;3.75;;;0.88;;
32297;SDS011;18782;48.984;8.548;2023-07-13T11:46:35;2.42;;;0.75;;
32297;SDS011;18782;48.984;8.548;2023-07-13T11:49:04;2.67;;;0.52;;
32297;SDS011;18782;48.984;8.548;2023-07-13T11:51:35;4.07;;;0.82;;
32297;SDS011;18782;48.984;8.548;2023-07-13T11:54:05;3.70;;;0.63;;
32297;SDS011;18782;48.984;8.548;2023-07-13T11:56:34;2.22;;;0.63;;
32297;SDS011;18782;48.984;8.548;2023-07-13T11:59:04;2.88;;;0.55;;
32297;SDS011;18782;48.984;8.548;2023-07-13T12:01:35;2.60;;;0.50;;
32297;SDS011;18782;48.984;8.548;2023-07-13T12:04:11;1.63;;;0.70;;
32297;SDS011;18782;48.984;8.548;2023-07-13T12:06:54;2.40;;;0.80;;
32297;SDS011;18782;48.984;8.548;2023-07-13T12:09:22;3.97;;;0.77;;
32297;SDS011;18782;48.984;8.548;2023-07-13T12:11:51;2.13;;;0.60;;
32297;SDS011;18782;48.984;8.548;2023-07-13T12:14:19;1.77;;;0.52;;
32297;SDS011;18782;48.984;8.548;2023-07-13T12:16:51;3.28;;;0.52;;
32297;SDS011;18782;48.984;8.548;2023-07-13T12:19:21;2.90;;;0.60;;
32297;SDS011;18782;48.984;8.548;2023-07-13T12:21:50;2.70;;;0.52;;
32297;SDS011;18782;48.984;8.548;2023-07-13T12:24:21;2.83;;;0.70;;
32297;SDS011;18782;48.984;8.548;2023-07-13T12:26:50;2.25;;;0.70;;
32297;SDS011;18782;48.984;8.548;2023-07-13T12:29:19;2.65;;;0.88;;
32297;SDS011;18782;48.984;8.548;2023-07-13T12:31:48;3.22;;;0.90;;
32297;SDS011;18782;48.984;8.548;2023-07-13T12:34:18;6.72;;;0.98;;
32297;SDS011;18782;48.984;8.548;2023-07-13T12:36:48;1.55;;;0.47;;
32297;SDS011;18782;48.984;8.548;2023-07-13T12:39:18;1.88;;;0.80;;
32297;SDS011;18782;48.984;8.548;2023-07-13T12:41:51;1.13;;;0.60;;
32297;SDS011;18782;48.984;8.548;2023-07-13T12:44:22;2.13;;;0.70;;
32297;SDS011;18782;48.984;8.548;2023-07-13T12:46:56;3.47;;;0.73;;
32297;SDS011;18782;48.984;8.548;2023-07-13T12:49:27;2.65;;;0.60;;
32297;SDS011;18782;48.984;8.548;2023-07-13T12:51:59;2.72;;;0.70;;
32297;SDS011;18782;48.984;8.548;2023-07-13T12:54:29;3.42;;;0.68;;
32297;SDS011;18782;48.984;8.548;2023-07-13T12:56:59;3.33;;;0.82;;
32297;SDS011;18782;48.984;8.548;2023-07-13T12:59:29;1.98;;;0.60;;
32297;SDS011;18782;48.984;8.548;2023-07-13T13:02:02;1.60;;;0.70;;
32297;SDS011;18782;48.984;8.548;2023-07-13T13:04:50;2.70;;;0.80;;
32297;SDS011;18782;48.984;8.548;2023-07-13T13:07:17;3.80;;;0.80;;
32297;SDS011;18782;48.984;8.548;2023-07-13T13:09:46;2.65;;;0.90;;
32297;SDS011;18782;48.984;8.548;2023-07-13T13:12:15;2.17;;;0.70;;
32297;SDS011;18782;48.984;8.548;2023-07-13T13:14:44;3.03;;;0.82;;
32297;SDS011;18782;48.984;8.548;2023-07-13T13:17:16;2.63;;;0.70;;
32297;SDS011;18782;48.984;8.548;2023-07-13T13:19:46;2.83;;;0.70;;
32297;SDS011;18782;48.984;8.548;2023-07-13T13:22:14;1.98;;;0.65;;
32297;SDS011;18782;48.984;8.548;2023-07-13T13:24:42;2.65;;;0.50;;
32297;SDS011;18782;48.984;8.548;2023-07-13T13:27:13;2.10;;;0.68;;
32297;SDS011;18782;48.984;8.548;2023-07-13T13:29:45;1.15;;;0.60;;
32297;SDS011;18782;48.984;8.548;2023-07-13T13:32:13;1.30;;;0.50;;
32297;SDS011;18782;48.984;8.548;2023-07-13T13:34:42;2.15;;;0.70;;
32297;SDS011;18782;48.984;8.548;2023-07-13T13:37:15;1.83;;;0.73;;
32297;SDS011;18782;48.984;8.548;2023-07-13T13:39:45;3.17;;;0.90;;
32297;SDS011;18782;48.984;8.548;2023-07-13T13:42:33;2.03;;;0.57;;
32297;SDS011;18782;48.984;8.548;2023-07-13T13:45:01;1.58;;;0.55;;
32297;SDS011;18782;48.984;8.548;2023-07-13T13:47:29;2.50;;;0.93;;
32297;SDS011;18782;48.984;8.548;2023-07-13T14:00:04;2.55;;;0.77;;
32297;SDS011;18782;48.984;8.548;2023-07-13T14:02:33;2.55;;;0.63;;
32297;SDS011;18782;48.984;8.548;2023-07-13T14:05:01;2.05;;;0.60;;
32297;SDS011;18782;48.984;8.548;2023-07-13T14:11:37;2.42;;;0.50;;
32297;SDS011;18782;48.984;8.548;2023-07-13T14:14:05;3.08;;;0.80;;
32297;SDS011;18782;48.984;8.548;2023-07-13T14:16:36;1.80;;;0.63;;
32297;SDS011;18782;48.984;8.548;2023-07-13T14:19:04;1.75;;;0.40;;
32297;SDS011;18782;48.984;8.548;2023-07-13T14:21:32;4.28;;;0.65;;
32297;SDS011;18782;48.984;8.548;2023-07-13T14:24:00;1.58;;;0.50;;
32297;SDS011;18782;48.984;8.548;2023-07-13T14:26:27;3.85;;;0.73;;
32297;SDS011;18782;48.984;8.548;2023-07-13T14:28:59;2.65;;;0.65;;
32297;SDS011;18782;48.984;8.548;2023-07-13T14:31:27;3.03;;;0.98;;
32297;SDS011;18782;48.984;8.548;2023-07-13T14:33:58;2.53;;;0.63;;
32297;SDS011;18782;48.984;8.548;2023-07-13T14:36:28;2.17;;;0.77;;
32297;SDS011;18782;48.984;8.548;2023-07-13T14:38:59;1.70;;;0.40;;
32297;SDS011;18782;48.984;8.548;2023-07-13T14:41:28;3.65;;;0.90;;
32297;SDS011;18782;48.984;8.548;2023-07-13T14:43:56;1.75;;;0.57;;
32297;SDS011;18782;48.984;8.548;2023-07-13T14:46:26;1.33;;;0.60;;
32297;SDS011;18782;48.984;8.548;2023-07-13T14:56:43;1.67;;;0.70;;
32297;SDS011;18782;48.984;8.548;2023-07-13T14:59:11;2.22;;;0.70;;
32297;SDS011;18782;48.984;8.548;2023-07-13T15:01:39;2.10;;;0.57;;
32297;SDS011;18782;48.984;8.548;2023-07-13T15:04:07;1.60;;;0.60;;
32297;SDS011;18782;48.984;8.548;2023-07-13T15:06:52;5.22;;;1.08;;
32297;SDS011;18782;48.984;8.548;2023-07-13T15:09:21;2.88;;;0.55;;
32297;SDS011;18782;48.984;8.548;2023-07-13T15:11:52;3.25;;;0.68;;
32297;SDS011;18782;48.984;8.548;2023-07-13T15:14:20;2.08;;;0.52;;
32297;SDS011;18782;48.984;8.548;2023-07-13T15:16:49;2.03;;;0.52;;
32297;SDS011;18782;48.984;8.548;2023-07-13T15:19:17;3.40;;;0.80;;
32297;SDS011;18782;48.984;8.548;2023-07-13T15:21:46;1.88;;;0.60;;
32297;SDS011;18782;48.984;8.548;2023-07-13T15:24:14;1.70;;;0.52;;
32297;SDS011;18782;48.984;8.548;2023-07-13T15:26:42;3.20;;;0.65;;
32297;SDS011;18782;48.984;8.548;2023-07-13T15:29:13;2.97;;;1.00;;
32297;SDS011;18782;48.984;8.548;2023-07-13T15:31:40;3.28;;;0.90;;
32297;SDS011;18782;48.984;8.548;2023-07-13T15:34:10;1.17;;;0.60;;
32297;SDS011;18782;48.984;8.548;2023-07-13T15:36:39;2.55;;;0.73;;
32297;SDS011;18782;48.984;8.548;2023-07-13T15:39:08;1.60;;;0.77;;
32297;SDS011;18782;48.984;8.548;2023-07-13T15:41:41;3.05;;;0.75;;
32297;SDS011;18782;48.984;8.548;2023-07-13T15:44:23;1.40;;;0.73;;
32297;SDS011;18782;48.984;8.548;2023-07-13T15:46:53;3.65;;;0.95;;
32297;SDS011;18782;48.984;8.548;2023-07-13T15:49:21;2.67;;;0.73;;
32297;SDS011;18782;48.984;8.548;2023-07-13T15:51:49;1.38;;;0.75;;